Merriam, Indiana
Current Conditions -  °F | °C
As of 7:15 AM on Monday 26 Jan 2015 (Local Time) from KGWB Reporting Station
Clear Clear  
Wind Chill:   Ceiling: Unl
Heat Index:   Visibility: 7mi
Dew Point:   Wind: 5mph
Humidity: 85%   Direction: 320°NW
Pressure: 29.94"   Gusts: NA
Location:  41.3469°N, 85.4059°W
Report Text: KGWB 261215Z AUTO 32004KT 7SM CLR M13/M15 A2994 RMK AO2
Loading
Personal Weather Stations






























Interactive Weather Map New forecast layout! Learn more

10-Day Weather Forecast

Advertisements
Track Severe Weather on mobile